Hartington, Nebraska
Current Conditions -  °F | °C
As of 4:35 AM on Saturday 22 Nov 2014 (Local Time) from KYKN Reporting Station
Clear Clear  
Wind Chill: 25°   Ceiling: Unl
Heat Index: 30°   Visibility: 3mi
Dew Point: 27°   Wind: 5mph
Humidity: 86%   Direction: 120°ESE
Pressure: 29.8"   Gusts: NA
Location:  42.62°N, 97.26°W
Report Text: KYKN 221035Z AUTO 12004KT 3SM CLR M01/M03 A2980 RMK AO1
Loading
Personal Weather Stations






























Interactive Weather Map New forecast layout! Learn more

10-Day Weather Forecast

Advertisements
Track Severe Weather on mobile